createdAt,value
2017-05-06T00:02:09.025Z,0
2017-05-06T00:02:49.416Z,0
2017-05-06T00:04:47.193Z,0
2017-05-06T00:05:27.644Z,0
2017-05-06T00:06:08.097Z,0
2017-05-06T00:06:48.501Z,0
2017-05-06T00:07:28.891Z,0
2017-05-06T00:08:09.322Z,0
2017-05-06T00:10:29.412Z,0
2017-05-06T00:11:09.839Z,0
2017-05-06T00:11:50.293Z,0
2017-05-06T00:12:30.669Z,0
2017-05-06T00:13:11.107Z,0
2017-05-06T00:13:51.507Z,0
2017-05-06T00:14:31.929Z,0
2017-05-06T00:15:12.418Z,0
2017-05-06T00:15:52.766Z,0
2017-05-06T00:16:33.228Z,0
2017-05-06T00:17:13.629Z,0
2017-05-06T00:17:54.046Z,0
2017-05-06T00:18:34.495Z,0
2017-05-06T00:19:14.889Z,0
2017-05-06T00:19:55.305Z,0
2017-05-06T00:20:35.688Z,0
2017-05-06T00:21:16.115Z,0
2017-05-06T00:21:56.508Z,0
2017-05-06T00:22:36.930Z,0
2017-05-06T00:23:17.332Z,0
2017-05-06T00:23:57.751Z,0
2017-05-06T00:24:38.983Z,0
2017-05-06T00:25:19.364Z,0
2017-05-06T00:25:59.815Z,0
2017-05-06T00:26:40.223Z,0
2017-05-06T00:27:20.642Z,0
2017-05-06T00:28:01.074Z,0
2017-05-06T00:28:41.473Z,0
2017-05-06T00:29:21.888Z,0
2017-05-06T00:30:02.296Z,0
2017-05-06T00:30:42.731Z,0
2017-05-06T00:31:23.116Z,0
2017-05-06T00:32:03.543Z,0
2017-05-06T00:32:43.967Z,0
2017-05-06T00:33:24.336Z,0
2017-05-06T00:34:04.778Z,0
2017-05-06T00:34:45.180Z,0
2017-05-06T00:35:25.609Z,0
2017-05-06T00:36:06.051Z,0
2017-05-06T00:36:46.470Z,0
2017-05-06T00:37:26.856Z,0
2017-05-06T00:38:07.292Z,0
2017-05-06T00:38:47.735Z,0
2017-05-06T00:39:28.161Z,0
2017-05-06T00:40:08.576Z,0
2017-05-06T00:40:49.012Z,0
2017-05-06T00:41:29.430Z,0
2017-05-06T00:42:09.838Z,0
2017-05-06T00:42:50.241Z,0
2017-05-06T00:43:30.673Z,0
2017-05-06T00:44:11.098Z,0
2017-05-06T00:44:51.506Z,0
2017-05-06T00:45:31.918Z,0
2017-05-06T00:46:12.336Z,0
2017-05-06T00:46:52.735Z,0
2017-05-06T00:49:19.243Z,0
2017-05-06T00:49:59.665Z,0
2017-05-06T00:50:40.078Z,0
2017-05-06T00:51:21.451Z,0
2017-05-06T00:52:03.687Z,0
2017-05-06T00:52:44.109Z,0
2017-05-06T00:53:24.534Z,0
2017-05-06T00:54:04.943Z,0
2017-05-06T00:54:45.356Z,0
2017-05-06T00:55:25.779Z,0
2017-05-06T00:56:06.180Z,0
2017-05-06T00:56:46.605Z,0
2017-05-06T00:57:27.004Z,0
2017-05-06T00:58:07.421Z,0
2017-05-06T00:58:47.859Z,0
2017-05-06T00:59:28.308Z,0
2017-05-06T01:00:08.706Z,0
2017-05-06T01:00:49.107Z,0
2017-05-06T01:01:29.546Z,0
2017-05-06T01:02:09.933Z,0
2017-05-06T01:02:50.347Z,0
2017-05-06T01:03:30.769Z,0
2017-05-06T01:04:11.200Z,0
2017-05-06T01:04:51.600Z,0
2017-05-06T01:05:32.026Z,0
2017-05-06T01:06:12.426Z,0
2017-05-06T01:06:52.817Z,0
2017-05-06T01:08:50.590Z,0
2017-05-06T01:09:31.041Z,0
2017-05-06T01:10:11.473Z,0
2017-05-06T01:10:51.866Z,0
2017-05-06T01:11:32.296Z,0
2017-05-06T01:13:45.188Z,0
2017-05-06T01:14:25.625Z,0
2017-05-06T01:15:06.063Z,0
2017-05-06T01:15:46.480Z,0
2017-05-06T01:16:26.877Z,0
2017-05-06T01:17:07.287Z,0
2017-05-06T01:17:47.700Z,0
2017-05-06T01:18:28.140Z,0
2017-05-06T01:19:08.576Z,0
2017-05-06T01:19:48.995Z,0
2017-05-06T01:20:29.420Z,0
2017-05-06T01:21:09.843Z,0
2017-05-06T01:21:50.240Z,0
2017-05-06T01:22:30.647Z,0
2017-05-06T01:23:11.059Z,0
2017-05-06T01:23:51.492Z,0
2017-05-06T01:24:32.659Z,0
2017-05-06T01:25:13.075Z,0
2017-05-06T01:25:53.510Z,0
2017-05-06T01:26:33.903Z,0
2017-05-06T01:28:31.780Z,0
2017-05-06T01:29:12.232Z,0
2017-05-06T01:29:52.680Z,0
2017-05-06T01:30:33.089Z,0
2017-05-06T01:31:13.475Z,0
2017-05-06T01:31:53.917Z,0
2017-05-06T01:32:34.339Z,0
2017-05-06T01:35:07.489Z,0
2017-05-06T01:35:47.889Z,0
2017-05-06T01:36:28.302Z,0
2017-05-06T01:37:08.753Z,0
2017-05-06T01:37:49.139Z,0
2017-05-06T01:38:29.575Z,0
2017-05-06T01:39:09.980Z,0
2017-05-06T01:39:50.391Z,0
2017-05-06T01:40:30.811Z,0
2017-05-06T01:41:11.236Z,0
2017-05-06T01:41:51.642Z,0
2017-05-06T01:42:32.124Z,0
2017-05-06T01:43:12.494Z,0
2017-05-06T01:43:52.947Z,0
2017-05-06T01:44:33.356Z,0
2017-05-06T01:45:13.766Z,0
2017-05-06T01:45:54.201Z,0
2017-05-06T01:46:34.588Z,0
2017-05-06T01:47:14.998Z,0
2017-05-06T01:47:55.402Z,0
2017-05-06T01:48:35.797Z,0
2017-05-06T01:49:16.224Z,0
2017-05-06T01:49:56.640Z,0
2017-05-06T01:50:37.052Z,0
2017-05-06T01:51:17.476Z,0
2017-05-06T01:51:58.493Z,0
2017-05-06T01:52:38.942Z,0
2017-05-06T01:53:19.339Z,0
2017-05-06T01:53:59.767Z,0
2017-05-06T01:54:40.182Z,0
2017-05-06T01:55:20.601Z,0
2017-05-06T01:56:01.009Z,0
2017-05-06T01:56:41.431Z,0
2017-05-06T01:57:21.846Z,0
2017-05-06T01:58:02.255Z,0
2017-05-06T02:00:35.473Z,0
2017-05-06T02:01:15.938Z,0
2017-05-06T02:01:56.351Z,0
2017-05-06T02:02:36.705Z,0
2017-05-06T02:03:17.131Z,0
2017-05-06T02:03:57.552Z,0
2017-05-06T02:04:37.991Z,0
2017-05-06T02:05:18.410Z,0
2017-05-06T02:05:58.833Z,0
2017-05-06T02:06:39.258Z,0
2017-05-06T02:07:19.671Z,0
2017-05-06T02:08:00.100Z,0
2017-05-06T02:08:40.516Z,0
2017-05-06T02:09:20.901Z,0
2017-05-06T02:10:01.307Z,0
2017-05-06T02:10:41.763Z,0
2017-05-06T02:11:22.142Z,0
2017-05-06T02:12:02.538Z,0
2017-05-06T02:12:42.973Z,0
2017-05-06T02:13:23.385Z,0
2017-05-06T02:14:03.800Z,0
2017-05-06T02:14:44.211Z,0
2017-05-06T02:15:24.609Z,0
2017-05-06T02:16:05.029Z,0
2017-05-06T02:16:45.452Z,0
2017-05-06T02:17:25.903Z,0
2017-05-06T02:18:06.308Z,0
2017-05-06T02:18:46.738Z,0
2017-05-06T02:19:27.715Z,0
2017-05-06T02:20:08.073Z,0
2017-05-06T02:20:48.510Z,0
2017-05-06T02:21:28.925Z,0
2017-05-06T02:22:09.344Z,0
2017-05-06T02:22:49.741Z,0
2017-05-06T02:23:30.171Z,0
2017-05-06T02:24:10.584Z,0
2017-05-06T02:26:48.657Z,0
2017-05-06T02:27:28.871Z,0
2017-05-06T02:28:09.325Z,0
2017-05-06T02:28:49.685Z,0
2017-05-06T02:29:30.106Z,0
2017-05-06T02:30:10.508Z,0
2017-05-06T02:32:29.339Z,0
2017-05-06T02:33:09.781Z,0
2017-05-06T02:33:50.247Z,0
2017-05-06T02:34:30.682Z,0
2017-05-06T02:35:11.097Z,0
2017-05-06T02:35:51.507Z,0
2017-05-06T02:36:31.919Z,0
2017-05-06T02:37:12.383Z,0
2017-05-06T02:37:52.803Z,0
2017-05-06T02:38:33.195Z,0
2017-05-06T02:39:13.637Z,0
2017-05-06T02:39:54.084Z,0
2017-05-06T02:40:35.434Z,0
2017-05-06T02:41:15.871Z,0
2017-05-06T02:41:56.298Z,0
2017-05-06T02:42:36.741Z,0
2017-05-06T02:43:17.146Z,0
2017-05-06T02:43:57.563Z,0
2017-05-06T02:44:38.004Z,0
2017-05-06T02:45:18.426Z,0
2017-05-06T02:45:58.846Z,0
2017-05-06T02:46:39.262Z,0
2017-05-06T02:47:19.687Z,0
2017-05-06T02:48:00.117Z,0
2017-05-06T02:48:40.528Z,0
2017-05-06T02:49:20.960Z,0
2017-05-06T02:50:01.334Z,0
2017-05-06T02:50:41.772Z,0
2017-05-06T02:51:22.179Z,0
2017-05-06T02:52:02.620Z,0
2017-05-06T02:52:43.024Z,0
2017-05-06T02:53:23.417Z,0
2017-05-06T02:54:03.860Z,0
2017-05-06T02:54:44.287Z,0
2017-05-06T02:55:24.662Z,0
2017-05-06T02:56:05.095Z,0
2017-05-06T02:56:45.499Z,0
2017-05-06T02:57:25.931Z,0
2017-05-06T02:58:06.334Z,0
2017-05-06T02:58:46.725Z,0
2017-05-06T02:59:27.849Z,0
2017-05-06T03:00:08.295Z,0
2017-05-06T03:00:48.704Z,0
2017-05-06T03:01:29.090Z,0
2017-05-06T03:02:09.521Z,0
2017-05-06T03:02:49.980Z,0
2017-05-06T03:03:30.389Z,0
2017-05-06T03:04:10.814Z,0
2017-05-06T03:04:51.221Z,0
2017-05-06T03:05:31.613Z,0
2017-05-06T03:06:12.050Z,0
2017-05-06T03:06:52.443Z,0
2017-05-06T03:07:32.852Z,0
2017-05-06T03:08:13.506Z,0
2017-05-06T03:08:53.937Z,0
2017-05-06T03:09:34.363Z,0
2017-05-06T03:10:14.780Z,0
2017-05-06T03:10:55.185Z,0
2017-05-06T03:11:35.642Z,0
2017-05-06T03:12:16.034Z,0
2017-05-06T03:12:56.434Z,0
2017-05-06T03:13:36.869Z,0
2017-05-06T03:14:17.264Z,0
2017-05-06T03:14:57.739Z,0
2017-05-06T03:15:38.144Z,0
2017-05-06T03:16:18.565Z,0
2017-05-06T03:16:58.990Z,0
2017-05-06T03:17:39.446Z,0
2017-05-06T03:18:19.844Z,0
2017-05-06T03:19:00.244Z,0
2017-05-06T03:19:40.680Z,4
2017-05-06T03:20:21.109Z,4
2017-05-06T03:21:01.532Z,4
2017-05-06T03:21:41.924Z,4
2017-05-06T03:22:22.342Z,4
2017-05-06T03:23:02.781Z,0
2017-05-06T03:23:43.182Z,4
2017-05-06T03:24:23.600Z,4
2017-05-06T03:25:04.046Z,4
2017-05-06T03:25:44.463Z,8
2017-05-06T03:27:57.247Z,8
2017-05-06T03:28:37.670Z,8
2017-05-06T03:29:18.093Z,8
2017-05-06T03:29:58.538Z,12
2017-05-06T03:30:38.963Z,8
2017-05-06T03:31:19.344Z,12
2017-05-06T03:33:52.663Z,16
2017-05-06T03:34:33.108Z,20
2017-05-06T03:35:13.530Z,20
2017-05-06T03:35:53.953Z,24
2017-05-06T03:36:34.394Z,28
2017-05-06T03:37:14.805Z,32
2017-05-06T03:37:55.208Z,32
2017-05-06T03:38:35.612Z,36
2017-05-06T03:39:16.038Z,40
2017-05-06T03:39:56.420Z,44
2017-05-06T03:40:36.873Z,48
2017-05-06T03:41:17.268Z,52
2017-05-06T03:41:58.564Z,52
2017-05-06T03:42:38.986Z,60
2017-05-06T03:43:19.401Z,64
2017-05-06T03:43:59.794Z,68
2017-05-06T03:46:27.763Z,88
2017-05-06T03:47:08.205Z,96
2017-05-06T03:47:48.658Z,104
2017-05-06T03:48:29.065Z,112
2017-05-06T03:49:09.486Z,120
2017-05-06T03:49:49.914Z,132
2017-05-06T03:50:30.360Z,140
2017-05-06T03:51:10.781Z,152
2017-05-06T03:51:51.144Z,160
2017-05-06T03:52:31.506Z,172
2017-05-06T03:53:11.951Z,184
2017-05-06T03:53:52.388Z,196
2017-05-06T03:54:32.966Z,204
2017-05-06T03:55:13.398Z,216
2017-05-06T03:55:53.903Z,232
2017-05-06T03:56:34.332Z,240
2017-05-06T03:57:14.743Z,256
2017-05-06T03:57:55.176Z,268
2017-05-06T03:58:35.587Z,284
2017-05-06T03:59:17.090Z,300
2017-05-06T03:59:57.505Z,316
2017-05-06T04:00:38.111Z,332
2017-05-06T04:01:18.511Z,348
2017-05-06T04:01:58.936Z,368
2017-05-06T04:02:39.355Z,384
2017-05-06T04:04:52.153Z,452
2017-05-06T04:05:32.596Z,472
2017-05-06T04:06:13.041Z,492
2017-05-06T04:06:53.469Z,516
2017-05-06T04:07:33.915Z,536
2017-05-06T04:08:14.362Z,556
2017-05-06T04:08:54.750Z,576
2017-05-06T04:09:35.172Z,604
2017-05-06T04:10:15.586Z,624
2017-05-06T04:10:55.989Z,644
2017-05-06T04:11:36.504Z,668
2017-05-06T04:12:16.853Z,692
2017-05-06T04:14:49.948Z,776
2017-05-06T04:15:30.391Z,800
2017-05-06T04:16:10.836Z,824
2017-05-06T04:16:51.249Z,848
2017-05-06T04:17:31.657Z,876
2017-05-06T04:18:12.041Z,904
2017-05-06T04:18:52.468Z,932
2017-05-06T04:19:32.933Z,956
2017-05-06T04:20:13.307Z,984
2017-05-06T04:20:53.739Z,1012
2017-05-06T04:21:34.140Z,1040
2017-05-06T04:22:14.546Z,1060
2017-05-06T04:22:54.937Z,1084
2017-05-06T04:23:35.366Z,1108
2017-05-06T04:24:15.778Z,1136
2017-05-06T04:24:56.204Z,1156
2017-05-06T04:25:36.614Z,1184
2017-05-06T04:26:17.013Z,1204
2017-05-06T04:26:57.437Z,1228
2017-05-06T04:27:37.843Z,1252
2017-05-06T04:28:18.265Z,1272
2017-05-06T04:28:58.714Z,1300
2017-05-06T04:29:39.139Z,1320
2017-05-06T04:30:19.533Z,1340
2017-05-06T04:30:59.978Z,1364
2017-05-06T04:31:40.398Z,1388
2017-05-06T04:32:20.792Z,1416
2017-05-06T04:33:01.206Z,1444
2017-05-06T04:33:41.630Z,1476
2017-05-06T04:34:22.058Z,1504
2017-05-06T04:35:02.499Z,1528
2017-05-06T04:35:42.864Z,1556
2017-05-06T04:36:23.359Z,1584
2017-05-06T04:37:03.764Z,1612
2017-05-06T04:37:44.185Z,1644
2017-05-06T04:38:24.591Z,1680
2017-05-06T04:39:05.037Z,1720
2017-05-06T04:39:45.400Z,1752
2017-05-06T04:40:25.813Z,1788
2017-05-06T04:41:06.263Z,1824
2017-05-06T04:41:46.680Z,1852
2017-05-06T04:42:27.101Z,1880
2017-05-06T04:43:07.471Z,1916
2017-05-06T04:43:47.901Z,1952
2017-05-06T04:44:28.319Z,1988
2017-05-06T04:45:08.711Z,2016
2017-05-06T04:45:49.161Z,2036
2017-05-06T04:46:29.572Z,2044
2017-05-06T04:47:09.987Z,2052
2017-05-06T04:47:50.389Z,2060
2017-05-06T04:48:30.813Z,2064
2017-05-06T04:49:11.218Z,2064
2017-05-06T04:49:51.654Z,2068
2017-05-06T04:50:32.061Z,2068
2017-05-06T04:51:12.484Z,2068
2017-05-06T04:51:52.896Z,2072
2017-05-06T04:52:33.300Z,2092
2017-05-06T04:53:13.766Z,2140
2017-05-06T04:53:54.193Z,2164
2017-05-06T04:54:34.610Z,2168
2017-05-06T04:55:15.029Z,2128
2017-05-06T04:55:55.414Z,2160
2017-05-06T04:56:35.846Z,2224
2017-05-06T04:57:16.251Z,2264
2017-05-06T04:57:56.699Z,2276
2017-05-06T04:58:37.129Z,2276
2017-05-06T04:59:17.579Z,2296
2017-05-06T04:59:57.982Z,2300
2017-05-06T05:00:38.414Z,2348
2017-05-06T05:01:18.873Z,2416
2017-05-06T05:01:59.289Z,2428
2017-05-06T05:02:39.693Z,2500
2017-05-06T05:03:20.080Z,2652
2017-05-06T05:04:00.520Z,2724
2017-05-06T05:04:40.913Z,2788
2017-05-06T05:05:21.358Z,3024
2017-05-06T05:06:01.776Z,3076
2017-05-06T05:06:42.168Z,2976
2017-05-06T05:07:22.619Z,2960
2017-05-06T05:08:03.005Z,3120
2017-05-06T05:08:43.397Z,3040
2017-05-06T05:09:23.829Z,3244
2017-05-06T05:10:04.232Z,3428
2017-05-06T05:10:45.311Z,3704
2017-05-06T05:11:25.723Z,3932
2017-05-06T05:12:06.137Z,4020
2017-05-06T05:12:46.709Z,4176
2017-05-06T05:13:27.107Z,4116
2017-05-06T05:14:07.516Z,4340
2017-05-06T05:14:47.931Z,4500
2017-05-06T05:15:28.319Z,4524
2017-05-06T05:16:08.745Z,4612
2017-05-06T05:16:49.156Z,4648
2017-05-06T05:17:29.575Z,4744
2017-05-06T05:18:10.024Z,4796
2017-05-06T05:18:50.431Z,4872
2017-05-06T05:19:30.862Z,4908
2017-05-06T05:20:11.295Z,4992
2017-05-06T05:20:51.715Z,5080
2017-05-06T05:21:32.140Z,5152
2017-05-06T05:22:12.553Z,5188
2017-05-06T05:22:52.954Z,5240
2017-05-06T05:23:33.375Z,5260
2017-05-06T05:24:13.809Z,5296
2017-05-06T05:24:54.186Z,5296
2017-05-06T05:25:34.649Z,5308
2017-05-06T05:26:15.034Z,5308
2017-05-06T05:26:55.444Z,5288
2017-05-06T05:27:35.892Z,5220
2017-05-06T05:28:16.276Z,4628
2017-05-06T05:28:56.727Z,4256
2017-05-06T05:29:37.317Z,5196
2017-05-06T05:30:17.760Z,5180
2017-05-06T05:30:58.146Z,4960
2017-05-06T05:31:38.856Z,5076
2017-05-06T05:32:19.243Z,5056
2017-05-06T05:32:59.668Z,5140
2017-05-06T05:33:41.918Z,5320
2017-05-06T05:34:22.353Z,5352
2017-05-06T05:35:02.772Z,5364
2017-05-06T05:35:44.601Z,5416
2017-05-06T05:36:25.034Z,5432
2017-05-06T05:37:05.975Z,5384
2017-05-06T05:37:46.425Z,5420
2017-05-06T05:38:26.833Z,5248
2017-05-06T05:39:07.265Z,5344
2017-05-06T05:39:47.713Z,5028
2017-05-06T05:40:28.125Z,4388
2017-05-06T05:41:08.612Z,5112
2017-05-06T05:41:49.045Z,5484
2017-05-06T05:42:29.467Z,5296
2017-05-06T05:43:09.908Z,4188
2017-05-06T05:45:22.790Z,5456
2017-05-06T05:46:03.224Z,5400
2017-05-06T05:46:43.660Z,5676
2017-05-06T05:47:24.095Z,5680
2017-05-06T05:48:04.541Z,5444
2017-05-06T05:48:44.975Z,5576
2017-05-06T05:49:25.357Z,5584
2017-05-06T05:50:05.777Z,5832
2017-05-06T05:50:46.213Z,6148
2017-05-06T05:51:26.632Z,6264
2017-05-06T05:52:07.042Z,6312
2017-05-06T05:52:47.464Z,6284
2017-05-06T05:53:27.854Z,6316
2017-05-06T05:54:08.255Z,6300
2017-05-06T05:54:48.666Z,6260
2017-05-06T05:55:29.089Z,6472
2017-05-06T05:56:09.485Z,6344
2017-05-06T05:56:49.931Z,6512
2017-05-06T05:57:30.330Z,6136
2017-05-06T05:58:10.757Z,6256
2017-05-06T05:58:51.188Z,6400
2017-05-06T05:59:31.568Z,6368
2017-05-06T06:02:04.567Z,7008
2017-05-06T06:02:45.009Z,7108
2017-05-06T06:03:25.458Z,7208
2017-05-06T06:04:05.878Z,7212
2017-05-06T06:04:46.306Z,7108
2017-05-06T06:05:26.728Z,7264
2017-05-06T06:06:07.162Z,7300
2017-05-06T06:06:47.568Z,7164
2017-05-06T06:07:27.979Z,7396
2017-05-06T06:08:08.401Z,7204
2017-05-06T06:08:48.846Z,7240
2017-05-06T06:09:29.284Z,6932
2017-05-06T06:10:09.705Z,6912
2017-05-06T06:10:50.128Z,6540
2017-05-06T06:11:30.532Z,6088
2017-05-06T06:12:10.966Z,5684
2017-05-06T06:12:53.345Z,4844
2017-05-06T06:13:33.751Z,5676
2017-05-06T06:14:14.174Z,5196
2017-05-06T06:14:54.602Z,5104
2017-05-06T06:15:35.002Z,5004
2017-05-06T06:16:15.408Z,6136
2017-05-06T06:16:55.828Z,6648
2017-05-06T06:17:36.269Z,6964
2017-05-06T06:18:16.676Z,6588
2017-05-06T06:18:57.069Z,7116
2017-05-06T06:19:37.514Z,7452
2017-05-06T06:20:17.911Z,7624
2017-05-06T06:20:58.348Z,8088
2017-05-06T06:21:38.775Z,7992
2017-05-06T06:22:19.180Z,8308
2017-05-06T06:22:59.614Z,8404
2017-05-06T06:23:40.008Z,8548
2017-05-06T06:24:20.407Z,8616
2017-05-06T06:25:00.837Z,8496
2017-05-06T06:25:41.271Z,8612
2017-05-06T06:26:21.707Z,8820
2017-05-06T06:27:02.098Z,8684
2017-05-06T06:27:42.528Z,8728
2017-05-06T06:28:22.965Z,8884
2017-05-06T06:29:03.338Z,8908
2017-05-06T06:29:43.774Z,8956
2017-05-06T06:30:24.208Z,8928
2017-05-06T06:32:37.008Z,9100
2017-05-06T06:33:17.431Z,9192
2017-05-06T06:33:57.852Z,9308
2017-05-06T06:34:38.278Z,9436
2017-05-06T06:35:18.715Z,9384
2017-05-06T06:35:59.173Z,9400
2017-05-06T06:36:39.612Z,9504
2017-05-06T06:37:20.053Z,9612
2017-05-06T06:38:00.482Z,9784
2017-05-06T06:38:40.941Z,9404
2017-05-06T06:39:21.356Z,9656
2017-05-06T06:40:01.783Z,9872
2017-05-06T06:40:42.180Z,10052
2017-05-06T06:42:40.047Z,9912
2017-05-06T06:43:20.481Z,9984
2017-05-06T06:44:00.920Z,10092
2017-05-06T06:44:41.333Z,10284
2017-05-06T06:45:21.765Z,10192
2017-05-06T06:46:02.186Z,10344
2017-05-06T06:46:42.606Z,10476
2017-05-06T06:47:23.005Z,10312
2017-05-06T06:48:03.432Z,10376
2017-05-06T06:48:43.866Z,10464
2017-05-06T06:49:24.246Z,10632
2017-05-06T06:50:04.682Z,10768
2017-05-06T06:50:45.111Z,10952
2017-05-06T06:51:26.052Z,10960
2017-05-06T06:52:06.384Z,11188
2017-05-06T06:54:34.311Z,11660
2017-05-06T06:55:14.763Z,11488
2017-05-06T06:55:55.849Z,11264
2017-05-06T06:56:36.265Z,11516
2017-05-06T06:57:16.847Z,11936
2017-05-06T06:57:57.270Z,11724
2017-05-06T06:58:37.698Z,11912
2017-05-06T07:00:50.623Z,11604
2017-05-06T07:01:31.051Z,11960
2017-05-06T07:02:11.469Z,13384
2017-05-06T07:02:52.032Z,12268
2017-05-06T07:03:32.451Z,11880
2017-05-06T07:04:12.917Z,11792
2017-05-06T07:04:53.333Z,11196
2017-05-06T07:05:33.765Z,13724
2017-05-06T07:06:14.200Z,13392
2017-05-06T07:06:54.626Z,12612
2017-05-06T07:07:35.488Z,12412
2017-05-06T07:08:15.625Z,12588
2017-05-06T07:08:56.013Z,12924
2017-05-06T07:09:36.515Z,13256
2017-05-06T07:10:16.846Z,13660
2017-05-06T07:10:57.250Z,13884
2017-05-06T07:11:38.320Z,14268
2017-05-06T07:12:18.760Z,15196
2017-05-06T07:12:59.617Z,17172
2017-05-06T07:13:39.638Z,16096
2017-05-06T07:14:20.021Z,15876
2017-05-06T07:15:00.464Z,16900
2017-05-06T07:15:40.894Z,19264
2017-05-06T07:16:21.550Z,28704
2017-05-06T07:17:02.052Z,39520
2017-05-06T07:17:42.408Z,12832
2017-05-06T07:18:23.405Z,47808
2017-05-06T07:19:03.859Z,57888
2017-05-06T07:19:44.284Z,58912
2017-05-06T07:20:24.691Z,58464
2017-05-06T07:21:05.189Z,61056
2017-05-06T07:21:46.460Z,61216
2017-05-06T07:22:26.875Z,63680
2017-05-06T07:23:07.285Z,63552
2017-05-06T07:25:35.303Z,65952
2017-05-06T07:26:15.757Z,63424
2017-05-06T07:26:56.128Z,65760
2017-05-06T07:27:36.631Z,65568
2017-05-06T07:28:17.085Z,68448
2017-05-06T07:28:57.531Z,70336
2017-05-06T07:29:37.992Z,68320
2017-05-06T07:30:18.486Z,67264
2017-05-06T07:30:58.808Z,69504
2017-05-06T07:31:39.252Z,70528
2017-05-06T07:32:19.695Z,68992
2017-05-06T07:33:00.196Z,65024
2017-05-06T07:33:40.673Z,64608
2017-05-06T07:34:21.036Z,62016
2017-05-06T07:35:01.563Z,61856
2017-05-06T07:35:41.976Z,62720
2017-05-06T07:36:22.458Z,58432
2017-05-06T07:37:02.966Z,60160
2017-05-06T07:37:43.338Z,58560
2017-05-06T07:38:23.824Z,58496
2017-05-06T07:39:04.185Z,58624
2017-05-06T07:39:44.617Z,60096
2017-05-06T07:40:25.081Z,60928
2017-05-06T07:41:05.614Z,63392
2017-05-06T07:41:46.008Z,62496
2017-05-06T07:42:26.471Z,61312
2017-05-06T07:43:06.852Z,61440
2017-05-06T07:45:05.127Z,67360
2017-05-06T07:45:45.557Z,67360
2017-05-06T07:46:26.042Z,66080
2017-05-06T07:47:06.490Z,64992
2017-05-06T07:47:46.969Z,64736
2017-05-06T07:48:27.311Z,66560
2017-05-06T07:49:07.812Z,69728
2017-05-06T07:49:48.244Z,70944
2017-05-06T07:50:28.605Z,69760
2017-05-06T07:51:09.128Z,71392
2017-05-06T07:51:49.517Z,71552
2017-05-06T07:52:29.950Z,68832
2017-05-06T07:53:10.418Z,68704
2017-05-06T07:53:50.770Z,69536
2017-05-06T07:54:31.178Z,69344
2017-05-06T07:55:11.601Z,64032
2017-05-06T07:55:52.084Z,70432
2017-05-06T07:56:32.479Z,65056
2017-05-06T07:57:12.977Z,57920
2017-05-06T07:57:53.385Z,58304
2017-05-06T07:58:33.754Z,65440
2017-05-06T07:59:14.186Z,62688
2017-05-06T07:59:54.563Z,60096
2017-05-06T08:02:07.590Z,65888
2017-05-06T08:02:48.029Z,61728
2017-05-06T08:03:28.506Z,68768
2017-05-06T08:04:08.834Z,77632
2017-05-06T08:04:49.266Z,79840
2017-05-06T08:05:29.732Z,74816
2017-05-06T08:06:10.189Z,74656
2017-05-06T08:08:08.216Z,73472
2017-05-06T08:08:48.667Z,77088
2017-05-06T08:09:29.127Z,78528
2017-05-06T08:10:09.549Z,75712
2017-05-06T08:10:49.963Z,75744
2017-05-06T08:11:30.631Z,75872
2017-05-06T08:12:11.038Z,83200
2017-05-06T08:12:53.245Z,91328
2017-05-06T08:13:33.824Z,84288
2017-05-06T08:14:14.809Z,78432
2017-05-06T08:14:56.141Z,79712
2017-05-06T08:15:36.558Z,71936
2017-05-06T08:16:16.971Z,64928
2017-05-06T08:16:57.398Z,68064
2017-05-06T08:17:37.805Z,61504
2017-05-06T08:18:18.236Z,59328
2017-05-06T08:18:58.698Z,63424
2017-05-06T08:19:39.814Z,52192
2017-05-06T08:21:37.729Z,63520
2017-05-06T08:22:18.946Z,59136
2017-05-06T08:22:59.449Z,45632
2017-05-06T08:23:39.842Z,52288
2017-05-06T08:24:20.250Z,64096
2017-05-06T08:25:00.659Z,51424
2017-05-06T08:25:41.099Z,64384
2017-05-06T08:26:21.568Z,66016
2017-05-06T08:27:02.010Z,60064
2017-05-06T08:27:42.454Z,56800
2017-05-06T08:28:22.865Z,56512
2017-05-06T08:29:03.265Z,52096
2017-05-06T08:29:43.723Z,55072
2017-05-06T08:30:24.411Z,54368
2017-05-06T08:31:05.727Z,49728
2017-05-06T08:31:46.168Z,59168
2017-05-06T08:32:26.683Z,49696
2017-05-06T08:33:07.015Z,46496
2017-05-06T08:33:48.945Z,36608
2017-05-06T08:34:29.423Z,50848
2017-05-06T08:35:10.112Z,46144
2017-05-06T08:35:50.564Z,50816
2017-05-06T08:36:31.082Z,62816
2017-05-06T08:37:11.543Z,47488
2017-05-06T08:37:51.996Z,57856
2017-05-06T08:38:32.422Z,84800
2017-05-06T08:39:12.860Z,106304
2017-05-06T08:39:53.975Z,98496
2017-05-06T08:40:34.575Z,97280
2017-05-06T08:41:15.028Z,84992
2017-05-06T08:41:55.487Z,84896
2017-05-06T08:42:36.551Z,75168
2017-05-06T08:43:16.997Z,97472
2017-05-06T08:43:57.430Z,94080
2017-05-06T08:44:37.876Z,81216
2017-05-06T08:45:18.665Z,89696
2017-05-06T08:45:59.860Z,98208
2017-05-06T08:46:40.312Z,93728
2017-05-06T08:47:20.730Z,99872
2017-05-06T08:48:01.157Z,93024
2017-05-06T08:48:41.582Z,89664
2017-05-06T08:49:22.117Z,94912
2017-05-06T08:50:02.500Z,100128
2017-05-06T08:50:42.946Z,57024
2017-05-06T08:51:23.448Z,74880
2017-05-06T08:52:04.092Z,59328
2017-05-06T08:52:44.789Z,85440
2017-05-06T08:53:25.205Z,99520
2017-05-06T08:54:05.657Z,98144
2017-05-06T08:54:46.096Z,104544
2017-05-06T08:55:26.553Z,101152
2017-05-06T08:56:07.558Z,97504
2017-05-06T08:56:47.992Z,107296
2017-05-06T08:57:28.433Z,105088
2017-05-06T08:58:09.710Z,95136
2017-05-06T08:58:50.187Z,99968
2017-05-06T08:59:31.408Z,103744
2017-05-06T09:00:11.846Z,112000
2017-05-06T09:00:52.256Z,106912
2017-05-06T09:01:33.561Z,104096
2017-05-06T09:02:15.651Z,104128
2017-05-06T09:02:56.052Z,103392
2017-05-06T09:03:36.508Z,98816
2017-05-06T09:04:16.936Z,104000
2017-05-06T09:04:59.980Z,108352
2017-05-06T09:05:43.247Z,110976
2017-05-06T09:06:23.810Z,110912
2017-05-06T09:07:04.246Z,104544
2017-05-06T09:07:46.646Z,107232
2017-05-06T09:08:27.100Z,104256
2017-05-06T09:09:07.534Z,101632
2017-05-06T09:09:47.967Z,105568
2017-05-06T09:10:28.391Z,107200
2017-05-06T09:11:08.844Z,106464
2017-05-06T09:11:49.292Z,105408
2017-05-06T09:12:30.419Z,109984
2017-05-06T09:13:12.331Z,114240
2017-05-06T09:13:52.789Z,115968
2017-05-06T09:14:33.257Z,111168
2017-05-06T09:15:13.674Z,108320
2017-05-06T09:15:54.155Z,111008
2017-05-06T09:16:34.755Z,112992
2017-05-06T09:17:15.054Z,115744
2017-05-06T09:17:55.498Z,114272
2017-05-06T09:18:35.950Z,112576
2017-05-06T09:19:16.398Z,112640
2017-05-06T09:19:57.630Z,110784
2017-05-06T09:20:38.131Z,109568
2017-05-06T09:21:18.782Z,101664
2017-05-06T09:21:59.295Z,106112
2017-05-06T09:22:39.767Z,95200
2017-05-06T09:23:20.201Z,80000
2017-05-06T09:24:00.616Z,63808
2017-05-06T09:25:58.704Z,83008
2017-05-06T09:26:40.780Z,105056
2017-05-06T09:27:21.325Z,102560
2017-05-06T09:28:01.765Z,83392
2017-05-06T09:28:42.186Z,105760
2017-05-06T09:29:22.630Z,94592
2017-05-06T09:30:03.046Z,102336
2017-05-06T09:30:43.487Z,87680
2017-05-06T09:31:26.552Z,104864
2017-05-06T09:32:07.042Z,99680
2017-05-06T09:32:47.521Z,100928
2017-05-06T09:33:28.097Z,102016
2017-05-06T09:34:08.534Z,103552
2017-05-06T09:34:48.996Z,101696
2017-05-06T09:35:29.679Z,102976
2017-05-06T09:36:10.052Z,106432
2017-05-06T09:36:50.571Z,102720
2017-05-06T09:37:30.945Z,103136
2017-05-06T09:38:11.359Z,100288
2017-05-06T09:38:51.794Z,91872
2017-05-06T09:39:32.229Z,92032
2017-05-06T09:40:12.733Z,99200
2017-05-06T09:40:53.168Z,102912
2017-05-06T09:41:33.602Z,88224
2017-05-06T09:42:14.080Z,109312
2017-05-06T09:42:54.508Z,110656
2017-05-06T09:43:34.976Z,101760
2017-05-06T09:44:15.485Z,96768
2017-05-06T09:44:55.847Z,94432
2017-05-06T09:45:36.346Z,112288
2017-05-06T09:46:17.517Z,106336
2017-05-06T09:46:57.767Z,108896
2017-05-06T09:47:38.217Z,111168
2017-05-06T09:48:18.630Z,112032
2017-05-06T09:48:59.092Z,113600
2017-05-06T09:49:39.512Z,111168
2017-05-06T09:50:19.930Z,112768
2017-05-06T09:51:00.404Z,105664
2017-05-06T09:51:40.827Z,102304
2017-05-06T09:52:21.357Z,100736
2017-05-06T09:53:02.610Z,108800
2017-05-06T09:53:43.035Z,105920
2017-05-06T09:54:23.515Z,105280
2017-05-06T09:55:03.956Z,98880
2017-05-06T09:55:44.387Z,95680
2017-05-06T09:56:25.761Z,78304
2017-05-06T09:58:40.785Z,86496